sensor_id;sensor_type;location;lat;lon;timestamp;pressure;altitude;pressure_sealevel;temperature;humidity
9905;BME280;4991;43.566;27.820;2022-07-30T00:02:03;98903.94;;;22.86;100.00
9905;BME280;4991;43.566;27.820;2022-07-30T00:04:29;98903.56;;;22.88;100.00
9905;BME280;4991;43.566;27.820;2022-07-30T00:06:54;98900.41;;;22.89;100.00
9905;BME280;4991;43.566;27.820;2022-07-30T00:09:20;98897.38;;;23.09;100.00
9905;BME280;4991;43.566;27.820;2022-07-30T00:11:45;98896.66;;;23.15;100.00
9905;BME280;4991;43.566;27.820;2022-07-30T00:14:11;98899.50;;;23.22;100.00
9905;BME280;4991;43.566;27.820;2022-07-30T00:16:37;98896.25;;;23.17;100.00
9905;BME280;4991;43.566;27.820;2022-07-30T00:19:02;98902.53;;;23.07;100.00
9905;BME280;4991;43.566;27.820;2022-07-30T00:21:28;98902.06;;;22.97;100.00
9905;BME280;4991;43.566;27.820;2022-07-30T00:23:53;98909.53;;;22.93;100.00
9905;BME280;4991;43.566;27.820;2022-07-30T00:26:19;98900.88;;;22.98;100.00
9905;BME280;4991;43.566;27.820;2022-07-30T00:28:44;98904.38;;;22.92;100.00
9905;BME280;4991;43.566;27.820;2022-07-30T00:31:10;98902.72;;;22.84;100.00
9905;BME280;4991;43.566;27.820;2022-07-30T00:33:35;98897.13;;;22.80;100.00
9905;BME280;4991;43.566;27.820;2022-07-30T00:36:01;98903.84;;;22.76;100.00
9905;BME280;4991;43.566;27.820;2022-07-30T00:38:26;98907.03;;;22.78;100.00
9905;BME280;4991;43.566;27.820;2022-07-30T00:40:52;98902.38;;;22.89;100.00
9905;BME280;4991;43.566;27.820;2022-07-30T00:43:18;98896.47;;;22.94;100.00
9905;BME280;4991;43.566;27.820;2022-07-30T00:45:44;98899.63;;;22.92;100.00
9905;BME280;4991;43.566;27.820;2022-07-30T00:48:11;98903.13;;;22.86;100.00
9905;BME280;4991;43.566;27.820;2022-07-30T00:50:37;98896.75;;;22.82;100.00
9905;BME280;4991;43.566;27.820;2022-07-30T00:53:03;98889.53;;;22.74;100.00
9905;BME280;4991;43.566;27.820;2022-07-30T00:55:29;98884.28;;;22.65;100.00
9905;BME280;4991;43.566;27.820;2022-07-30T00:57:54;98884.31;;;22.69;100.00
9905;BME280;4991;43.566;27.820;2022-07-30T01:00:20;98875.16;;;22.65;100.00
9905;BME280;4991;43.566;27.820;2022-07-30T01:02:46;98883.47;;;22.61;100.00
9905;BME280;4991;43.566;27.820;2022-07-30T01:05:12;98873.34;;;22.46;100.00
9905;BME280;4991;43.566;27.820;2022-07-30T01:07:38;98862.97;;;22.40;100.00
9905;BME280;4991;43.566;27.820;2022-07-30T01:10:04;98861.41;;;22.42;100.00
9905;BME280;4991;43.566;27.820;2022-07-30T01:12:31;98859.91;;;22.48;100.00
9905;BME280;4991;43.566;27.820;2022-07-30T01:14:58;98864.81;;;22.62;100.00
9905;BME280;4991;43.566;27.820;2022-07-30T01:17:25;98873.59;;;22.67;100.00
9905;BME280;4991;43.566;27.820;2022-07-30T01:19:53;98867.22;;;22.67;100.00
9905;BME280;4991;43.566;27.820;2022-07-30T01:27:46;98873.31;;;22.79;100.00
9905;BME280;4991;43.566;27.820;2022-07-30T01:30:16;98864.59;;;22.81;100.00
9905;BME280;4991;43.566;27.820;2022-07-30T01:32:44;98860.63;;;22.82;100.00
9905;BME280;4991;43.566;27.820;2022-07-30T01:35:11;98861.75;;;22.74;100.00
9905;BME280;4991;43.566;27.820;2022-07-30T01:37:38;98866.97;;;22.79;100.00
9905;BME280;4991;43.566;27.820;2022-07-30T01:40:06;98866.88;;;22.72;100.00
9905;BME280;4991;43.566;27.820;2022-07-30T01:42:32;98863.69;;;22.66;100.00
9905;BME280;4991;43.566;27.820;2022-07-30T01:44:59;98862.94;;;22.73;100.00
9905;BME280;4991;43.566;27.820;2022-07-30T01:47:26;98867.81;;;22.83;100.00
9905;BME280;4991;43.566;27.820;2022-07-30T01:49:53;98867.31;;;22.74;100.00
9905;BME280;4991;43.566;27.820;2022-07-30T01:52:20;98866.06;;;22.68;100.00
9905;BME280;4991;43.566;27.820;2022-07-30T01:54:49;98869.75;;;22.79;100.00
9905;BME280;4991;43.566;27.820;2022-07-30T01:57:18;98873.28;;;22.76;100.00
9905;BME280;4991;43.566;27.820;2022-07-30T01:59:48;98868.16;;;22.78;100.00
9905;BME280;4991;43.566;27.820;2022-07-30T02:02:14;98866.97;;;22.79;100.00
9905;BME280;4991;43.566;27.820;2022-07-30T02:04:40;98864.56;;;22.77;100.00
9905;BME280;4991;43.566;27.820;2022-07-30T02:07:26;98850.31;;;22.79;100.00
9905;BME280;4991;43.566;27.820;2022-07-30T02:10:00;98851.06;;;22.76;100.00
9905;BME280;4991;43.566;27.820;2022-07-30T02:12:28;98857.81;;;22.75;100.00
9905;BME280;4991;43.566;27.820;2022-07-30T02:15:28;98846.31;;;22.76;100.00
9905;BME280;4991;43.566;27.820;2022-07-30T02:18:17;98847.81;;;22.67;100.00
9905;BME280;4991;43.566;27.820;2022-07-30T02:20:50;98852.22;;;22.71;100.00
9905;BME280;4991;43.566;27.820;2022-07-30T02:23:18;98855.78;;;22.72;100.00
9905;BME280;4991;43.566;27.820;2022-07-30T02:25:48;98854.66;;;22.76;100.00
9905;BME280;4991;43.566;27.820;2022-07-30T02:28:16;98849.88;;;22.77;100.00
9905;BME280;4991;43.566;27.820;2022-07-30T02:30:47;98859.78;;;22.74;100.00
9905;BME280;4991;43.566;27.820;2022-07-30T02:33:16;98862.50;;;22.67;100.00
9905;BME280;4991;43.566;27.820;2022-07-30T02:35:43;98858.13;;;22.66;100.00
9905;BME280;4991;43.566;27.820;2022-07-30T02:38:11;98862.44;;;22.64;100.00
9905;BME280;4991;43.566;27.820;2022-07-30T02:40:40;98861.22;;;22.58;100.00
9905;BME280;4991;43.566;27.820;2022-07-30T02:43:07;98853.66;;;22.55;100.00
9905;BME280;4991;43.566;27.820;2022-07-30T02:45:33;98859.75;;;22.71;100.00
9905;BME280;4991;43.566;27.820;2022-07-30T02:48:03;98860.88;;;22.63;100.00
9905;BME280;4991;43.566;27.820;2022-07-30T02:50:31;98849.56;;;22.49;100.00
9905;BME280;4991;43.566;27.820;2022-07-30T02:53:00;98850.25;;;22.39;100.00
9905;BME280;4991;43.566;27.820;2022-07-30T02:55:28;98848.69;;;22.38;100.00
9905;BME280;4991;43.566;27.820;2022-07-30T02:57:56;98856.25;;;22.41;100.00
9905;BME280;4991;43.566;27.820;2022-07-30T03:00:25;98847.41;;;22.65;100.00
9905;BME280;4991;43.566;27.820;2022-07-30T03:02:52;98841.25;;;22.49;100.00
9905;BME280;4991;43.566;27.820;2022-07-30T03:05:18;98851.91;;;22.43;100.00
9905;BME280;4991;43.566;27.820;2022-07-30T03:07:45;98843.09;;;22.34;100.00
9905;BME280;4991;43.566;27.820;2022-07-30T03:10:12;98842.44;;;22.48;100.00
9905;BME280;4991;43.566;27.820;2022-07-30T03:12:40;98847.72;;;22.56;100.00
9905;BME280;4991;43.566;27.820;2022-07-30T03:15:08;98841.44;;;22.63;100.00
9905;BME280;4991;43.566;27.820;2022-07-30T03:17:42;98850.06;;;22.54;100.00
9905;BME280;4991;43.566;27.820;2022-07-30T03:20:11;98851.25;;;22.53;100.00
9905;BME280;4991;43.566;27.820;2022-07-30T03:22:41;98851.31;;;22.60;100.00
9905;BME280;4991;43.566;27.820;2022-07-30T03:25:08;98840.16;;;22.53;100.00
9905;BME280;4991;43.566;27.820;2022-07-30T03:27:38;98844.41;;;22.47;100.00
9905;BME280;4991;43.566;27.820;2022-07-30T03:30:04;98852.28;;;22.42;100.00
9905;BME280;4991;43.566;27.820;2022-07-30T03:32:31;98850.13;;;22.25;100.00
9905;BME280;4991;43.566;27.820;2022-07-30T03:34:58;98857.72;;;22.31;100.00
9905;BME280;4991;43.566;27.820;2022-07-30T03:37:25;98858.41;;;22.21;100.00
9905;BME280;4991;43.566;27.820;2022-07-30T03:39:51;98849.75;;;22.26;100.00
9905;BME280;4991;43.566;27.820;2022-07-30T03:42:18;98863.56;;;22.23;100.00
9905;BME280;4991;43.566;27.820;2022-07-30T03:44:45;98859.66;;;22.27;100.00
9905;BME280;4991;43.566;27.820;2022-07-30T03:47:12;98864.66;;;22.48;100.00
9905;BME280;4991;43.566;27.820;2022-07-30T03:49:38;98866.22;;;22.49;100.00
9905;BME280;4991;43.566;27.820;2022-07-30T03:52:05;98861.88;;;22.48;100.00
9905;BME280;4991;43.566;27.820;2022-07-30T03:54:31;98868.69;;;22.54;100.00
9905;BME280;4991;43.566;27.820;2022-07-30T03:57:02;98872.66;;;22.53;100.00
9905;BME280;4991;43.566;27.820;2022-07-30T03:59:29;98870.97;;;22.45;100.00
9905;BME280;4991;43.566;27.820;2022-07-30T04:02:02;98865.81;;;22.47;100.00
9905;BME280;4991;43.566;27.820;2022-07-30T04:04:28;98873.47;;;22.57;100.00
9905;BME280;4991;43.566;27.820;2022-07-30T04:06:55;98867.94;;;22.57;100.00
9905;BME280;4991;43.566;27.820;2022-07-30T04:09:21;98873.56;;;22.64;100.00
9905;BME280;4991;43.566;27.820;2022-07-30T04:11:47;98868.13;;;22.74;100.00
9905;BME280;4991;43.566;27.820;2022-07-30T04:14:12;98876.53;;;22.81;100.00
9905;BME280;4991;43.566;27.820;2022-07-30T04:19:17;98868.19;;;22.81;100.00
9905;BME280;4991;43.566;27.820;2022-07-30T04:21:45;98867.47;;;22.88;100.00
9905;BME280;4991;43.566;27.820;2022-07-30T04:24:12;98882.63;;;22.97;100.00
9905;BME280;4991;43.566;27.820;2022-07-30T04:26:40;98873.47;;;22.97;100.00
9905;BME280;4991;43.566;27.820;2022-07-30T04:29:08;98874.28;;;22.97;100.00
9905;BME280;4991;43.566;27.820;2022-07-30T04:31:35;98864.69;;;22.88;100.00
9905;BME280;4991;43.566;27.820;2022-07-30T04:34:01;98864.16;;;22.75;100.00
9905;BME280;4991;43.566;27.820;2022-07-30T04:36:28;98864.41;;;22.63;100.00
9905;BME280;4991;43.566;27.820;2022-07-30T04:38:54;98852.47;;;22.56;100.00
9905;BME280;4991;43.566;27.820;2022-07-30T04:41:19;98853.84;;;22.39;100.00
9905;BME280;4991;43.566;27.820;2022-07-30T04:43:45;98854.13;;;22.31;100.00
9905;BME280;4991;43.566;27.820;2022-07-30T04:46:10;98858.50;;;22.28;100.00
9905;BME280;4991;43.566;27.820;2022-07-30T04:48:36;98854.94;;;22.31;100.00
9905;BME280;4991;43.566;27.820;2022-07-30T04:51:04;98842.69;;;22.36;100.00
9905;BME280;4991;43.566;27.820;2022-07-30T04:53:33;98860.44;;;22.28;100.00
9905;BME280;4991;43.566;27.820;2022-07-30T04:55:59;98861.56;;;22.20;100.00
9905;BME280;4991;43.566;27.820;2022-07-30T04:58:27;98856.09;;;22.27;100.00
9905;BME280;4991;43.566;27.820;2022-07-30T05:00:54;98845.09;;;22.37;100.00
9905;BME280;4991;43.566;27.820;2022-07-30T05:03:20;98847.69;;;22.53;100.00
9905;BME280;4991;43.566;27.820;2022-07-30T05:05:46;98854.31;;;22.45;100.00
9905;BME280;4991;43.566;27.820;2022-07-30T05:08:12;98846.94;;;22.59;100.00
9905;BME280;4991;43.566;27.820;2022-07-30T05:10:39;98847.06;;;22.70;100.00
9905;BME280;4991;43.566;27.820;2022-07-30T05:13:10;98851.03;;;22.72;100.00
9905;BME280;4991;43.566;27.820;2022-07-30T05:15:35;98856.91;;;22.64;100.00
9905;BME280;4991;43.566;27.820;2022-07-30T05:18:00;98849.50;;;22.78;100.00
9905;BME280;4991;43.566;27.820;2022-07-30T05:20:26;98853.16;;;22.86;100.00
9905;BME280;4991;43.566;27.820;2022-07-30T05:22:51;98839.31;;;22.89;100.00
9905;BME280;4991;43.566;27.820;2022-07-30T05:25:17;98855.19;;;22.92;100.00
9905;BME280;4991;43.566;27.820;2022-07-30T05:27:42;98850.09;;;22.98;100.00
9905;BME280;4991;43.566;27.820;2022-07-30T05:30:08;98860.50;;;23.12;100.00
9905;BME280;4991;43.566;27.820;2022-07-30T05:32:34;98856.16;;;23.14;100.00
9905;BME280;4991;43.566;27.820;2022-07-30T05:34:59;98855.38;;;23.17;100.00
9905;BME280;4991;43.566;27.820;2022-07-30T05:37:25;98857.47;;;23.27;100.00
9905;BME280;4991;43.566;27.820;2022-07-30T05:39:50;98858.19;;;23.21;100.00
9905;BME280;4991;43.566;27.820;2022-07-30T05:42:16;98866.66;;;23.31;100.00
9905;BME280;4991;43.566;27.820;2022-07-30T05:44:41;98855.94;;;23.37;100.00
9905;BME280;4991;43.566;27.820;2022-07-30T05:47:07;98861.50;;;23.37;100.00
9905;BME280;4991;43.566;27.820;2022-07-30T05:49:32;98861.59;;;23.47;100.00
9905;BME280;4991;43.566;27.820;2022-07-30T05:51:58;98854.44;;;23.46;100.00
9905;BME280;4991;43.566;27.820;2022-07-30T05:54:23;98855.31;;;23.57;100.00
9905;BME280;4991;43.566;27.820;2022-07-30T05:56:49;98842.22;;;23.65;100.00
9905;BME280;4991;43.566;27.820;2022-07-30T05:59:14;98840.25;;;23.65;100.00
9905;BME280;4991;43.566;27.820;2022-07-30T06:01:39;98847.03;;;23.71;100.00
9905;BME280;4991;43.566;27.820;2022-07-30T06:04:05;98841.53;;;23.82;100.00
9905;BME280;4991;43.566;27.820;2022-07-30T06:06:30;98843.53;;;23.85;100.00
9905;BME280;4991;43.566;27.820;2022-07-30T06:08:56;98845.56;;;23.95;100.00
9905;BME280;4991;43.566;27.820;2022-07-30T06:11:21;98837.72;;;24.07;100.00
9905;BME280;4991;43.566;27.820;2022-07-30T06:13:46;98834.53;;;24.05;100.00
9905;BME280;4991;43.566;27.820;2022-07-30T06:16:12;98829.00;;;24.23;100.00
9905;BME280;4991;43.566;27.820;2022-07-30T06:18:37;98819.47;;;24.31;100.00
9905;BME280;4991;43.566;27.820;2022-07-30T06:21:03;98822.28;;;24.35;100.00
9905;BME280;4991;43.566;27.820;2022-07-30T06:23:28;98821.50;;;24.45;100.00
9905;BME280;4991;43.566;27.820;2022-07-30T06:25:54;98816.38;;;24.57;100.00
9905;BME280;4991;43.566;27.820;2022-07-30T06:28:19;98812.38;;;24.51;100.00
9905;BME280;4991;43.566;27.820;2022-07-30T06:30:45;98812.38;;;24.58;100.00
9905;BME280;4991;43.566;27.820;2022-07-30T06:33:12;98813.59;;;24.68;100.00
9905;BME280;4991;43.566;27.820;2022-07-30T06:35:37;98806.84;;;24.83;100.00
9905;BME280;4991;43.566;27.820;2022-07-30T06:38:03;98801.28;;;24.97;100.00
9905;BME280;4991;43.566;27.820;2022-07-30T06:40:29;98800.47;;;25.17;100.00
9905;BME280;4991;43.566;27.820;2022-07-30T06:42:55;98792.09;;;25.21;100.00
9905;BME280;4991;43.566;27.820;2022-07-30T06:45:20;98794.06;;;25.27;100.00
9905;BME280;4991;43.566;27.820;2022-07-30T06:47:46;98804.41;;;25.30;100.00
9905;BME280;4991;43.566;27.820;2022-07-30T06:50:11;98794.44;;;25.51;100.00
9905;BME280;4991;43.566;27.820;2022-07-30T06:52:37;98785.72;;;25.45;100.00
9905;BME280;4991;43.566;27.820;2022-07-30T06:55:03;98788.47;;;25.56;100.00
9905;BME280;4991;43.566;27.820;2022-07-30T06:57:28;98781.25;;;25.69;100.00
9905;BME280;4991;43.566;27.820;2022-07-30T06:59:54;98786.00;;;25.75;100.00
9905;BME280;4991;43.566;27.820;2022-07-30T07:02:20;98776.38;;;25.90;100.00
9905;BME280;4991;43.566;27.820;2022-07-30T07:04:45;98781.53;;;25.95;100.00
9905;BME280;4991;43.566;27.820;2022-07-30T07:07:11;98781.09;;;26.07;100.00
9905;BME280;4991;43.566;27.820;2022-07-30T07:09:36;98780.69;;;26.12;100.00
9905;BME280;4991;43.566;27.820;2022-07-30T07:12:02;98776.28;;;26.15;100.00
9905;BME280;4991;43.566;27.820;2022-07-30T07:14:27;98782.59;;;26.29;100.00
9905;BME280;4991;43.566;27.820;2022-07-30T07:16:53;98781.19;;;26.55;100.00
9905;BME280;4991;43.566;27.820;2022-07-30T07:19:18;98775.59;;;26.58;100.00
9905;BME280;4991;43.566;27.820;2022-07-30T07:21:44;98771.53;;;26.70;100.00
9905;BME280;4991;43.566;27.820;2022-07-30T07:24:09;98777.88;;;26.78;100.00
9905;BME280;4991;43.566;27.820;2022-07-30T07:26:34;98780.56;;;26.88;100.00
9905;BME280;4991;43.566;27.820;2022-07-30T07:29:01;98776.88;;;26.98;100.00
9905;BME280;4991;43.566;27.820;2022-07-30T07:31:26;98772.34;;;27.15;100.00
9905;BME280;4991;43.566;27.820;2022-07-30T07:33:52;98775.91;;;27.19;100.00
9905;BME280;4991;43.566;27.820;2022-07-30T07:36:21;98771.03;;;27.30;100.00
9905;BME280;4991;43.566;27.820;2022-07-30T07:38:47;98769.41;;;27.32;100.00
9905;BME280;4991;43.566;27.820;2022-07-30T07:41:13;98772.78;;;27.54;100.00
9905;BME280;4991;43.566;27.820;2022-07-30T07:43:39;98765.03;;;27.65;100.00
9905;BME280;4991;43.566;27.820;2022-07-30T07:46:05;98763.78;;;27.69;100.00
9905;BME280;4991;43.566;27.820;2022-07-30T07:48:31;98755.47;;;27.96;100.00
9905;BME280;4991;43.566;27.820;2022-07-30T07:50:57;98759.28;;;28.09;100.00
9905;BME280;4991;43.566;27.820;2022-07-30T07:53:23;98750.75;;;28.20;100.00
9905;BME280;4991;43.566;27.820;2022-07-30T07:55:48;98752.66;;;28.26;100.00
9905;BME280;4991;43.566;27.820;2022-07-30T07:58:14;98747.19;;;28.16;100.00
9905;BME280;4991;43.566;27.820;2022-07-30T08:00:39;98751.31;;;28.34;100.00
9905;BME280;4991;43.566;27.820;2022-07-30T08:03:05;98735.94;;;28.46;100.00
9905;BME280;4991;43.566;27.820;2022-07-30T08:05:31;98742.88;;;28.64;100.00
9905;BME280;4991;43.566;27.820;2022-07-30T08:07:56;98736.56;;;28.60;100.00
9905;BME280;4991;43.566;27.820;2022-07-30T08:10:22;98739.06;;;28.78;100.00
9905;BME280;4991;43.566;27.820;2022-07-30T08:12:47;98726.50;;;28.86;100.00
9905;BME280;4991;43.566;27.820;2022-07-30T08:15:13;98723.63;;;28.89;100.00
9905;BME280;4991;43.566;27.820;2022-07-30T08:17:43;98720.72;;;28.96;100.00
9905;BME280;4991;43.566;27.820;2022-07-30T08:20:09;98725.63;;;29.12;100.00
9905;BME280;4991;43.566;27.820;2022-07-30T08:22:35;98728.31;;;29.19;100.00
9905;BME280;4991;43.566;27.820;2022-07-30T08:25:01;98722.22;;;29.24;100.00
9905;BME280;4991;43.566;27.820;2022-07-30T08:27:26;98735.97;;;29.38;100.00
9905;BME280;4991;43.566;27.820;2022-07-30T08:29:52;98729.78;;;29.47;100.00
9905;BME280;4991;43.566;27.820;2022-07-30T08:32:18;98730.06;;;29.52;100.00
9905;BME280;4991;43.566;27.820;2022-07-30T08:34:44;98724.41;;;29.56;100.00
9905;BME280;4991;43.566;27.820;2022-07-30T08:37:09;98718.16;;;29.68;100.00
9905;BME280;4991;43.566;27.820;2022-07-30T08:39:35;98722.34;;;29.79;100.00
9905;BME280;4991;43.566;27.820;2022-07-30T08:42:02;98721.78;;;30.04;100.00
9905;BME280;4991;43.566;27.820;2022-07-30T08:44:28;98712.59;;;30.19;100.00
9905;BME280;4991;43.566;27.820;2022-07-30T08:46:55;98702.63;;;30.34;100.00
9905;BME280;4991;43.566;27.820;2022-07-30T08:49:22;98716.78;;;30.31;100.00
9905;BME280;4991;43.566;27.820;2022-07-30T08:51:51;98709.91;;;30.32;100.00
9905;BME280;4991;43.566;27.820;2022-07-30T08:54:17;98699.47;;;30.33;100.00
9905;BME280;4991;43.566;27.820;2022-07-30T08:56:43;98706.59;;;30.53;100.00
9905;BME280;4991;43.566;27.820;2022-07-30T08:59:09;98706.34;;;30.64;100.00
9905;BME280;4991;43.566;27.820;2022-07-30T09:01:35;98706.25;;;30.83;100.00
9905;BME280;4991;43.566;27.820;2022-07-30T09:04:01;98701.34;;;30.87;100.00
9905;BME280;4991;43.566;27.820;2022-07-30T09:06:26;98694.00;;;31.06;100.00
9905;BME280;4991;43.566;27.820;2022-07-30T09:08:52;98698.66;;;31.12;100.00
9905;BME280;4991;43.566;27.820;2022-07-30T09:11:18;98706.25;;;31.28;100.00
9905;BME280;4991;43.566;27.820;2022-07-30T09:13:44;98699.41;;;31.29;100.00
9905;BME280;4991;43.566;27.820;2022-07-30T09:16:23;98696.84;;;31.34;100.00
9905;BME280;4991;43.566;27.820;2022-07-30T09:18:50;98694.88;;;31.47;100.00
9905;BME280;4991;43.566;27.820;2022-07-30T09:21:18;98698.13;;;31.46;100.00
9905;BME280;4991;43.566;27.820;2022-07-30T09:24:06;98694.94;;;31.73;100.00
9905;BME280;4991;43.566;27.820;2022-07-30T09:26:59;98685.94;;;31.78;100.00
9905;BME280;4991;43.566;27.820;2022-07-30T09:29:29;98697.00;;;31.85;100.00
9905;BME280;4991;43.566;27.820;2022-07-30T09:32:02;98691.13;;;31.79;100.00
9905;BME280;4991;43.566;27.820;2022-07-30T09:34:31;98683.31;;;32.12;100.00
9905;BME280;4991;43.566;27.820;2022-07-30T09:36:58;98676.53;;;31.97;100.00
9905;BME280;4991;43.566;27.820;2022-07-30T09:39:34;98681.03;;;31.94;100.00
9905;BME280;4991;43.566;27.820;2022-07-30T09:42:02;98674.84;;;32.12;100.00
9905;BME280;4991;43.566;27.820;2022-07-30T09:44:29;98679.69;;;32.36;100.00
9905;BME280;4991;43.566;27.820;2022-07-30T09:46:56;98675.28;;;32.60;100.00
9905;BME280;4991;43.566;27.820;2022-07-30T09:49:26;98667.47;;;33.67;95.51
9905;BME280;4991;43.566;27.820;2022-07-30T09:51:53;98669.50;;;36.03;80.46
9905;BME280;4991;43.566;27.820;2022-07-30T09:54:19;98669.50;;;36.68;75.82
9905;BME280;4991;43.566;27.820;2022-07-30T09:56:44;98670.47;;;37.36;66.71
9905;BME280;4991;43.566;27.820;2022-07-30T09:59:30;98666.91;;;39.12;55.33
9905;BME280;4991;43.566;27.820;2022-07-30T10:01:56;98666.53;;;39.70;53.56
9905;BME280;4991;43.566;27.820;2022-07-30T10:04:32;98667.44;;;40.08;52.12
9905;BME280;4991;43.566;27.820;2022-07-30T10:06:59;98668.91;;;42.05;44.91
9905;BME280;4991;43.566;27.820;2022-07-30T10:09:32;98671.75;;;40.65;45.78
9905;BME280;4991;43.566;27.820;2022-07-30T10:12:00;98672.69;;;40.46;47.68
9905;BME280;4991;43.566;27.820;2022-07-30T10:14:37;98671.91;;;40.87;43.34
9905;BME280;4991;43.566;27.820;2022-07-30T10:17:04;98668.84;;;39.92;44.60
9905;BME280;4991;43.566;27.820;2022-07-30T10:19:31;98658.78;;;40.28;43.03
9905;BME280;4991;43.566;27.820;2022-07-30T10:21:58;98663.69;;;40.64;43.91
9905;BME280;4991;43.566;27.820;2022-07-30T10:24:24;98666.81;;;42.33;40.87
9905;BME280;4991;43.566;27.820;2022-07-30T10:26:51;98660.88;;;39.50;45.23
9905;BME280;4991;43.566;27.820;2022-07-30T10:29:18;98659.13;;;38.72;47.13
9905;BME280;4991;43.566;27.820;2022-07-30T10:31:45;98656.59;;;37.67;46.53
9905;BME280;4991;43.566;27.820;2022-07-30T10:34:13;98651.78;;;36.82;52.20
9905;BME280;4991;43.566;27.820;2022-07-30T10:36:49;98653.31;;;37.07;52.98
9905;BME280;4991;43.566;27.820;2022-07-30T10:39:19;98643.75;;;37.86;54.44
9905;BME280;4991;43.566;27.820;2022-07-30T10:42:05;98640.94;;;39.50;50.31
9905;BME280;4991;43.566;27.820;2022-07-30T10:45:00;98646.22;;;40.51;45.97
9905;BME280;4991;43.566;27.820;2022-07-30T10:47:28;98631.59;;;38.49;47.75
9905;BME280;4991;43.566;27.820;2022-07-30T10:50:04;98633.19;;;39.31;46.82
9905;BME280;4991;43.566;27.820;2022-07-30T10:52:53;98638.16;;;40.13;43.34
9905;BME280;4991;43.566;27.820;2022-07-30T10:55:20;98633.50;;;38.93;47.29
9905;BME280;4991;43.566;27.820;2022-07-30T11:00:25;98629.19;;;36.31;57.28
9905;BME280;4991;43.566;27.820;2022-07-30T11:03:13;98639.31;;;35.73;64.01
9905;BME280;4991;43.566;27.820;2022-07-30T11:05:39;98624.13;;;35.16;68.41
9905;BME280;4991;43.566;27.820;2022-07-30T11:08:27;98637.66;;;35.03;72.31
9905;BME280;4991;43.566;27.820;2022-07-30T11:10:53;98634.41;;;34.47;75.36
9905;BME280;4991;43.566;27.820;2022-07-30T11:16:12;98616.78;;;35.78;69.14
9905;BME280;4991;43.566;27.820;2022-07-30T11:21:29;98613.06;;;40.22;49.72
9905;BME280;4991;43.566;27.820;2022-07-30T11:23:57;98622.69;;;38.97;50.97
9905;BME280;4991;43.566;27.820;2022-07-30T11:29:04;98609.53;;;36.75;58.80
9905;BME280;4991;43.566;27.820;2022-07-30T11:31:34;98605.16;;;36.18;63.72
9905;BME280;4991;43.566;27.820;2022-07-30T11:47:56;98597.91;;;33.39;88.87
9905;BME280;4991;43.566;27.820;2022-07-30T11:50:32;98606.63;;;33.32;86.96
9905;BME280;4991;43.566;27.820;2022-07-30T11:53:02;98605.88;;;33.31;87.51
9905;BME280;4991;43.566;27.820;2022-07-30T11:55:30;98598.50;;;33.34;86.90
9905;BME280;4991;43.566;27.820;2022-07-30T11:57:57;98601.94;;;33.50;84.73
9905;BME280;4991;43.566;27.820;2022-07-30T12:00:24;98592.84;;;33.55;83.20
9905;BME280;4991;43.566;27.820;2022-07-30T12:02:50;98592.72;;;34.29;79.61
9905;BME280;4991;43.566;27.820;2022-07-30T12:05:23;98587.19;;;36.21;68.81
9905;BME280;4991;43.566;27.820;2022-07-30T12:07:50;98577.25;;;38.67;57.47
9905;BME280;4991;43.566;27.820;2022-07-30T12:10:18;98576.38;;;40.46;49.06
9905;BME280;4991;43.566;27.820;2022-07-30T12:12:45;98577.63;;;40.34;47.23
9905;BME280;4991;43.566;27.820;2022-07-30T12:15:11;98577.72;;;42.64;41.17
9905;BME280;4991;43.566;27.820;2022-07-30T12:17:52;98583.72;;;41.17;42.10
9905;BME280;4991;43.566;27.820;2022-07-30T12:20:18;98575.59;;;39.47;43.40
9905;BME280;4991;43.566;27.820;2022-07-30T12:22:44;98579.50;;;38.43;46.04
9905;BME280;4991;43.566;27.820;2022-07-30T12:25:10;98582.50;;;36.65;53.49
9905;BME280;4991;43.566;27.820;2022-07-30T12:27:36;98577.16;;;38.07;52.10
9905;BME280;4991;43.566;27.820;2022-07-30T12:30:07;98571.13;;;38.54;49.21
9905;BME280;4991;43.566;27.820;2022-07-30T12:32:33;98562.34;;;37.01;54.00
9905;BME280;4991;43.566;27.820;2022-07-30T12:34:59;98566.94;;;36.61;56.26
9905;BME280;4991;43.566;27.820;2022-07-30T12:37:25;98559.44;;;35.92;59.43
9905;BME280;4991;43.566;27.820;2022-07-30T12:40:13;98548.69;;;37.43;51.81
9905;BME280;4991;43.566;27.820;2022-07-30T12:42:50;98556.38;;;38.01;48.53
9905;BME280;4991;43.566;27.820;2022-07-30T12:45:30;98561.84;;;39.20;45.02
9905;BME280;4991;43.566;27.820;2022-07-30T12:47:57;98547.38;;;40.59;40.75
9905;BME280;4991;43.566;27.820;2022-07-30T12:50:23;98550.25;;;41.56;37.14
9905;BME280;4991;43.566;27.820;2022-07-30T12:52:51;98546.63;;;41.72;35.68
9905;BME280;4991;43.566;27.820;2022-07-30T12:55:18;98542.66;;;42.42;33.76
9905;BME280;4991;43.566;27.820;2022-07-30T12:58:01;98548.41;;;42.25;32.47
9905;BME280;4991;43.566;27.820;2022-07-30T13:02:53;98545.16;;;43.24;30.95
9905;BME280;4991;43.566;27.820;2022-07-30T13:05:19;98540.56;;;43.05;30.37
9905;BME280;4991;43.566;27.820;2022-07-30T13:07:55;98540.75;;;43.18;28.52
9905;BME280;4991;43.566;27.820;2022-07-30T13:10:22;98540.00;;;43.82;26.78
9905;BME280;4991;43.566;27.820;2022-07-30T13:12:47;98546.78;;;43.09;26.66
9905;BME280;4991;43.566;27.820;2022-07-30T13:15:20;98547.81;;;43.82;25.81
9905;BME280;4991;43.566;27.820;2022-07-30T13:17:47;98544.53;;;44.74;24.85
9905;BME280;4991;43.566;27.820;2022-07-30T13:20:16;98542.50;;;44.45;25.21
9905;BME280;4991;43.566;27.820;2022-07-30T13:22:42;98529.69;;;44.22;29.25
9905;BME280;4991;43.566;27.820;2022-07-30T13:25:08;98531.88;;;45.01;32.73
9905;BME280;4991;43.566;27.820;2022-07-30T13:27:34;98524.19;;;44.48;35.46
9905;BME280;4991;43.566;27.820;2022-07-30T13:30:00;98525.75;;;44.49;36.79
9905;BME280;4991;43.566;27.820;2022-07-30T13:32:26;98537.31;;;44.19;37.35
9905;BME280;4991;43.566;27.820;2022-07-30T13:34:52;98535.56;;;43.16;39.25
9905;BME280;4991;43.566;27.820;2022-07-30T13:37:18;98532.72;;;41.04;45.62
9905;BME280;4991;43.566;27.820;2022-07-30T13:39:43;98536.22;;;39.00;55.03
9905;BME280;4991;43.566;27.820;2022-07-30T13:42:10;98533.91;;;40.70;49.73